Strona główna
METAR-TAF:

METAR-TAF

Lotnisko :

Port lotniczy Mediolan-Linate

Mediolan, Włochy

Szerokość geograficzna: 45-26N, Długość geograficzna: 009-17E, wysokość: 107 m

Aktualna obserwacja pogody

Raport powstał 35 minut temu, godzina 00:50 UTC
Wiatr 1 kt z kierunków zmiennych
Temperatura 25°C
Wilgotność 83%
Ciśnienie 1017 hPa
Widzialność: 8000 m

METAR: LIML 240050Z AUTO VRB01KT 8000 NCD 25/22 Q1017

czas: 03:25 (01:25 UTC)

Prognoza

Raport powstał 2 godziny i 25 minut temu, godzina 23:00 UTC
Prognoza ważna od 24 godzina 00 UTC do 24 godzina 24 UTC
Wiatr 5 kt z kierunków zmiennych
Widzialność 10 km lub więcej
Brak chmur poniżej 1500 m i brak chmur cumulonimbus

TAF: LIML 232300Z 2400/2424 VRB05KT CAVOK

Obserwacja i prognoza pogody dla ponad 4000 lotnisk (raport METAR i TAF).

Dostępne stacje oznaczono żółtymi i czerwonymi punktami na mapie.

Najedź kursorem aby zobaczyć nazwę stacji.

Kliknij aby zobaczyć obserwacje i prognozy pogody.

Aby zmienić mapę: kliknij na zielony przycisk z czarnym krzyżykiem, aby powiększyć; na zielony przycisk z myślnikiem, aby pomniejszyć; na zielone strzałki, aby przejść do map sąsiednich.


METAR-TAF: